createdAt,value
2023-04-12T00:12:56.909Z,99.90
2023-04-12T00:23:01.358Z,99.90
2023-04-12T00:33:10.968Z,99.90
2023-04-12T00:43:13.170Z,99.90
2023-04-12T00:53:18.713Z,99.90
2023-04-12T01:03:30.650Z,99.90
2023-04-12T01:13:47.432Z,99.90
2023-04-12T01:24:13.370Z,99.90
2023-04-12T01:34:51.346Z,99.90
2023-04-12T01:44:58.146Z,99.90
2023-04-12T01:55:04.731Z,99.90
2023-04-12T02:05:09.971Z,99.90
2023-04-12T02:15:12.925Z,99.90
2023-04-12T02:25:20.753Z,99.90
2023-04-12T02:35:24.038Z,99.90
2023-04-12T02:45:31.283Z,99.90
2023-04-12T02:55:34.278Z,99.90
2023-04-12T03:06:12.187Z,99.90
2023-04-12T03:16:23.094Z,99.90
2023-04-12T03:26:33.706Z,99.90
2023-04-12T03:36:49.242Z,99.90
2023-04-12T03:47:01.494Z,99.90
2023-04-12T03:57:09.375Z,99.90
2023-04-12T04:07:16.062Z,99.90
2023-04-12T04:17:20.322Z,99.90
2023-04-12T04:27:25.120Z,99.90
2023-04-12T04:37:30.005Z,99.90
2023-04-12T04:47:33.568Z,99.90
2023-04-12T04:57:35.550Z,99.90
2023-04-12T05:07:38.333Z,99.90
2023-04-12T05:17:40.377Z,99.90
2023-04-12T05:27:42.276Z,99.90
2023-04-12T05:37:48.725Z,99.90
2023-04-12T05:47:50.772Z,99.90
2023-04-12T05:57:52.763Z,99.90
2023-04-12T06:07:56.475Z,99.90
2023-04-12T06:17:58.691Z,99.90
2023-04-12T06:28:00.587Z,99.90
2023-04-12T06:38:02.999Z,99.90
2023-04-12T06:48:04.811Z,99.90
2023-04-12T06:58:06.841Z,99.90
2023-04-12T07:08:08.824Z,99.90
2023-04-12T07:18:10.759Z,99.90
2023-04-12T07:28:12.701Z,99.90
2023-04-12T07:38:16.559Z,99.90
2023-04-12T07:48:19.328Z,99.90
2023-04-12T07:58:25.239Z,99.90
2023-04-12T08:08:27.087Z,99.90
2023-04-12T08:18:29.309Z,99.90
2023-04-12T08:28:31.503Z,99.90
2023-04-12T08:48:41.372Z,99.90
2023-04-12T08:58:47.098Z,98.30
2023-04-12T09:08:56.421Z,90.00
2023-04-12T09:18:58.555Z,98.60
2023-04-12T09:29:00.635Z,99.90
2023-04-12T09:39:02.579Z,95.50
2023-04-12T09:49:04.619Z,97.30
2023-04-12T09:59:07.651Z,95.40
2023-04-12T10:09:10.100Z,78.30
2023-04-12T10:19:14.248Z,65.50
2023-04-12T10:29:27.643Z,62.00
2023-04-12T10:39:44.057Z,83.10
2023-04-12T10:50:24.885Z,91.70
2023-04-12T11:00:58.769Z,91.30
2023-04-12T11:11:02.605Z,77.80
2023-04-12T11:21:10.696Z,83.60
2023-04-12T11:31:12.621Z,76.10
2023-04-12T11:41:15.070Z,85.90
2023-04-12T11:51:21.584Z,88.10
2023-04-12T12:01:24.038Z,87.90
2023-04-12T12:11:26.186Z,82.80
2023-04-12T12:21:28.090Z,71.00
2023-04-12T12:31:29.993Z,67.00
2023-04-12T12:41:31.950Z,61.70
2023-04-12T12:51:33.871Z,60.20
2023-04-12T13:01:35.731Z,59.00
2023-04-12T13:11:37.615Z,59.80
2023-04-12T13:21:39.484Z,59.80
2023-04-12T13:31:41.469Z,57.50
2023-04-12T13:41:43.450Z,58.00
2023-04-12T13:51:45.286Z,56.40
2023-04-12T14:01:47.190Z,57.30
2023-04-12T14:11:49.391Z,57.50
2023-04-12T14:21:51.629Z,57.20
2023-04-12T14:31:53.463Z,57.20
2023-04-12T14:41:55.345Z,56.30
2023-04-12T14:51:57.126Z,56.00
2023-04-12T15:01:59.001Z,56.30
2023-04-12T15:12:01.150Z,55.10
2023-04-12T15:22:04.313Z,54.90
2023-04-12T15:32:06.223Z,54.70
2023-04-12T15:42:08.211Z,54.60
2023-04-12T15:52:11.286Z,54.60
2023-04-12T16:02:13.253Z,54.60
2023-04-12T16:12:15.107Z,55.30
2023-04-12T16:22:16.920Z,56.50
2023-04-12T16:32:18.857Z,56.10
2023-04-12T16:42:21.048Z,55.70
2023-04-12T16:52:22.852Z,56.00
2023-04-12T17:02:25.151Z,56.20
2023-04-12T17:12:27.145Z,57.20
2023-04-12T17:22:29.050Z,57.80
2023-04-12T17:32:31.377Z,58.50
2023-04-12T17:42:33.398Z,59.70
2023-04-12T17:52:35.849Z,61.00
2023-04-12T18:02:37.926Z,62.50
2023-04-12T18:12:39.890Z,64.00
2023-04-12T18:22:42.546Z,67.80
2023-04-12T18:32:45.608Z,79.90
2023-04-12T18:42:47.541Z,95.00
2023-04-12T18:52:49.408Z,99.90
2023-04-12T19:02:51.209Z,99.90
2023-04-12T19:12:53.313Z,99.90
2023-04-12T19:22:55.069Z,99.90
2023-04-12T19:32:58.888Z,99.90
2023-04-12T19:43:00.845Z,99.90
2023-04-12T19:53:03.018Z,99.90
2023-04-12T20:03:05.228Z,99.90
2023-04-12T20:13:07.332Z,99.90
2023-04-12T20:23:09.211Z,99.90
2023-04-12T20:33:11.110Z,99.90
2023-04-12T20:43:13.057Z,99.90
2023-04-12T20:53:16.730Z,99.90
2023-04-12T21:03:18.595Z,99.90
2023-04-12T21:13:20.725Z,99.90
2023-04-12T21:23:24.215Z,99.90
2023-04-12T21:33:29.243Z,99.90
2023-04-12T21:43:31.096Z,99.90
2023-04-12T21:53:36.077Z,99.90
2023-04-12T22:03:38.101Z,99.90
2023-04-12T22:13:40.207Z,99.90
2023-04-12T22:23:43.058Z,99.90
2023-04-12T22:33:50.121Z,99.90
2023-04-12T22:43:58.200Z,99.90
2023-04-12T22:54:00.403Z,99.90
2023-04-12T23:04:02.273Z,99.90
2023-04-12T23:14:04.951Z,99.90
2023-04-12T23:24:07.781Z,99.90
2023-04-12T23:34:09.604Z,99.90
2023-04-12T23:44:11.472Z,99.90
2023-04-12T23:54:13.291Z,99.90
